createdAt,value
2018-05-17T00:04:25.768Z,99.90
2018-05-17T00:10:30.265Z,99.90
2018-05-17T00:16:35.454Z,99.90
2018-05-17T00:22:39.820Z,99.90
2018-05-17T00:28:44.162Z,99.90
2018-05-17T00:34:51.399Z,99.90
2018-05-17T00:40:55.768Z,99.90
2018-05-17T00:47:00.279Z,99.90
2018-05-17T00:53:22.482Z,99.90
2018-05-17T00:59:26.842Z,99.90
2018-05-17T01:05:31.218Z,99.90
2018-05-17T01:11:36.341Z,99.90
2018-05-17T01:17:40.740Z,99.90
2018-05-17T01:23:45.108Z,99.90
2018-05-17T01:29:49.469Z,99.90
2018-05-17T01:35:54.939Z,99.90
2018-05-17T01:41:59.456Z,99.90
2018-05-17T01:48:03.942Z,99.90
2018-05-17T01:54:08.319Z,99.90
2018-05-17T02:00:13.476Z,99.90
2018-05-17T02:06:17.933Z,99.90
2018-05-17T02:12:22.562Z,99.90
2018-05-17T02:18:26.941Z,99.90
2018-05-17T02:24:31.419Z,99.90
2018-05-17T02:30:36.867Z,99.90
2018-05-17T02:36:42.164Z,99.90
2018-05-17T02:42:46.638Z,99.90
2018-05-17T02:48:52.604Z,99.90
2018-05-17T02:54:57.081Z,99.90
2018-05-17T03:01:01.669Z,99.90
2018-05-17T03:07:06.256Z,99.90
2018-05-17T03:13:11.590Z,99.90
2018-05-17T03:19:16.141Z,99.90
2018-05-17T03:25:20.597Z,99.90
2018-05-17T03:31:25.952Z,99.90
2018-05-17T03:37:30.401Z,99.90
2018-05-17T03:43:34.951Z,99.90
2018-05-17T03:49:39.720Z,99.90
2018-05-17T03:55:44.299Z,99.90
2018-05-17T04:02:06.435Z,99.90
2018-05-17T04:08:11.566Z,99.90
2018-05-17T04:14:15.912Z,99.90
2018-05-17T04:20:21.679Z,99.90
2018-05-17T04:26:26.256Z,99.90
2018-05-17T04:32:30.882Z,99.90
2018-05-17T04:38:35.794Z,99.90
2018-05-17T04:44:40.784Z,99.90
2018-05-17T04:50:45.404Z,99.90
2018-05-17T04:56:50.925Z,99.90
2018-05-17T05:02:55.818Z,99.90
2018-05-17T05:09:00.160Z,99.90
2018-05-17T05:15:04.703Z,99.90
2018-05-17T05:21:09.088Z,99.90
2018-05-17T05:27:13.432Z,99.90
2018-05-17T05:33:17.804Z,99.90
2018-05-17T05:39:23.018Z,99.90
2018-05-17T05:45:28.309Z,99.90
2018-05-17T05:51:32.656Z,99.90
2018-05-17T05:57:37.769Z,99.90
2018-05-17T06:03:42.141Z,99.90
2018-05-17T06:09:46.491Z,99.90
2018-05-17T06:15:51.649Z,99.90
2018-05-17T06:21:56.015Z,99.90
2018-05-17T06:28:00.380Z,99.90
2018-05-17T06:34:04.820Z,99.90
2018-05-17T06:40:09.935Z,99.90
2018-05-17T06:46:14.316Z,99.90
2018-05-17T06:52:18.710Z,99.90
2018-05-17T06:58:24.592Z,99.90
2018-05-17T07:04:28.967Z,99.90
2018-05-17T07:10:33.434Z,99.90
2018-05-17T07:16:38.658Z,99.90
2018-05-17T07:22:43.004Z,99.90
2018-05-17T07:28:47.369Z,99.90
2018-05-17T07:34:52.915Z,99.90
2018-05-17T07:40:57.267Z,99.90
2018-05-17T07:47:01.660Z,99.90
2018-05-17T07:53:06.170Z,99.90
2018-05-17T07:59:10.581Z,99.90
2018-05-17T08:05:15.710Z,99.90
2018-05-17T08:11:20.182Z,99.90
2018-05-17T08:17:24.628Z,99.90
2018-05-17T08:23:29.753Z,99.90
2018-05-17T08:29:34.096Z,99.90
2018-05-17T08:35:39.294Z,97.50
2018-05-17T08:41:43.818Z,97.50
2018-05-17T08:47:48.201Z,97.60
2018-05-17T09:06:52.585Z,96.90
2018-05-17T09:12:57.069Z,97.80
2018-05-17T09:19:01.446Z,97.20
2018-05-17T09:25:05.983Z,97.20
2018-05-17T09:31:10.385Z,96.30
2018-05-17T09:37:14.755Z,94.60
2018-05-17T09:43:19.980Z,94.30
2018-05-17T09:49:24.579Z,94.30
2018-05-17T09:55:28.957Z,93.20
2018-05-17T10:01:34.141Z,92.70
2018-05-17T10:07:38.668Z,92.60
2018-05-17T10:13:44.037Z,92.80
2018-05-17T10:19:48.393Z,92.70
2018-05-17T10:25:52.870Z,92.90
2018-05-17T10:31:57.339Z,93.00
2018-05-17T10:38:01.697Z,93.30
2018-05-17T10:44:06.286Z,90.80
2018-05-17T10:50:10.641Z,90.50
2018-05-17T10:56:14.993Z,91.20
2018-05-17T11:02:20.337Z,89.20
2018-05-17T11:08:24.740Z,89.00
2018-05-17T11:14:29.489Z,87.20
2018-05-17T11:20:33.894Z,85.50
2018-05-17T11:26:38.283Z,84.30
2018-05-17T11:32:42.645Z,84.20
2018-05-17T11:38:46.989Z,80.70
2018-05-17T11:44:51.670Z,83.70
2018-05-17T11:50:56.030Z,78.50
2018-05-17T11:57:00.383Z,77.90
2018-05-17T12:03:05.494Z,76.00
2018-05-17T12:09:09.889Z,76.00
2018-05-17T12:15:14.280Z,80.90
2018-05-17T12:21:18.772Z,75.50
2018-05-17T12:27:24.774Z,69.00
2018-05-17T12:33:29.196Z,68.40
2018-05-17T12:39:34.329Z,68.20
2018-05-17T12:45:38.725Z,68.20
2018-05-17T12:51:43.097Z,68.40
2018-05-17T12:57:47.586Z,62.50
2018-05-17T13:03:52.138Z,62.30
2018-05-17T13:09:56.999Z,64.60
2018-05-17T13:16:01.470Z,65.10
2018-05-17T13:22:06.684Z,57.80
2018-05-17T13:28:11.271Z,57.80
2018-05-17T13:34:16.447Z,63.10
2018-05-17T13:40:20.850Z,63.10
2018-05-17T13:46:25.220Z,63.90
2018-05-17T13:52:29.621Z,66.30
2018-05-17T13:58:35.607Z,59.00
2018-05-17T14:04:40.080Z,59.00
2018-05-17T14:10:45.272Z,56.50
2018-05-17T14:16:49.804Z,56.50
2018-05-17T14:22:54.942Z,55.90
2018-05-17T14:28:59.294Z,55.30
2018-05-17T14:35:03.813Z,54.40
2018-05-17T14:41:08.160Z,53.60
2018-05-17T14:47:12.589Z,51.50
2018-05-17T14:53:16.979Z,54.00
2018-05-17T14:59:23.477Z,52.90
2018-05-17T15:05:27.924Z,52.70
2018-05-17T15:11:32.329Z,52.30
2018-05-17T15:17:36.890Z,50.40
2018-05-17T15:23:41.653Z,49.20
2018-05-17T15:29:46.095Z,49.50
2018-05-17T15:35:50.525Z,52.30
2018-05-17T15:41:55.656Z,51.40
2018-05-17T15:48:00.079Z,51.30
2018-05-17T15:54:04.438Z,50.50
2018-05-17T16:00:08.836Z,51.00
2018-05-17T16:06:13.268Z,51.70
2018-05-17T16:12:18.422Z,52.20
2018-05-17T16:18:23.824Z,52.20
2018-05-17T16:24:29.036Z,53.20
2018-05-17T16:30:33.465Z,53.00
2018-05-17T16:36:37.841Z,52.40
2018-05-17T16:42:42.234Z,54.00
2018-05-17T16:48:46.577Z,52.50
2018-05-17T16:54:51.988Z,52.50
2018-05-17T17:00:56.476Z,52.10
2018-05-17T17:07:00.824Z,52.90
2018-05-17T17:13:05.228Z,50.70
2018-05-17T17:19:09.609Z,51.20
2018-05-17T17:25:14.009Z,53.50
2018-05-17T17:31:18.385Z,54.90
2018-05-17T17:37:23.423Z,57.40
2018-05-17T17:43:27.803Z,57.60
2018-05-17T17:49:32.194Z,59.90
2018-05-17T17:55:36.630Z,62.70
2018-05-17T18:01:41.766Z,66.00
2018-05-17T18:07:46.162Z,66.00
2018-05-17T18:13:50.844Z,69.00
2018-05-17T18:19:56.006Z,79.40
2018-05-17T18:26:00.428Z,79.30
2018-05-17T18:32:05.534Z,92.20
2018-05-17T18:38:10.656Z,94.30
2018-05-17T18:44:15.064Z,94.20
2018-05-17T18:50:19.629Z,95.50
2018-05-17T18:56:24.319Z,96.20
2018-05-17T19:02:28.729Z,96.50
2018-05-17T19:08:34.029Z,97.80
2018-05-17T19:14:38.436Z,97.80
2018-05-17T19:20:42.883Z,98.10
2018-05-17T19:26:48.012Z,98.90
2018-05-17T19:32:52.717Z,98.90
2018-05-17T19:38:57.185Z,99.50
2018-05-17T19:45:01.575Z,99.70
2018-05-17T19:51:06.023Z,99.90
2018-05-17T19:57:10.380Z,99.90
2018-05-17T20:03:14.737Z,99.90
2018-05-17T20:09:19.971Z,99.90
2018-05-17T20:15:24.490Z,99.90
2018-05-17T20:21:29.124Z,99.90
2018-05-17T20:27:33.515Z,99.90
2018-05-17T20:33:37.891Z,99.90
2018-05-17T20:39:42.286Z,99.90
2018-05-17T20:45:46.719Z,99.90
2018-05-17T20:51:52.194Z,99.90
2018-05-17T20:57:56.705Z,99.90
2018-05-17T21:04:01.128Z,99.90
2018-05-17T21:10:06.361Z,99.90
2018-05-17T21:16:10.735Z,99.90
2018-05-17T21:22:15.858Z,99.90
2018-05-17T21:28:20.581Z,99.90
2018-05-17T21:34:25.696Z,99.90
2018-05-17T21:40:30.040Z,99.90
2018-05-17T21:46:34.583Z,99.90
2018-05-17T21:52:38.983Z,99.90
2018-05-17T21:58:44.120Z,99.90
2018-05-17T22:04:48.725Z,99.90
2018-05-17T22:10:54.231Z,99.90
2018-05-17T22:16:58.716Z,99.90
2018-05-17T22:23:03.130Z,99.90
2018-05-17T22:29:07.554Z,99.90
2018-05-17T22:35:12.117Z,99.90
2018-05-17T22:41:16.506Z,99.90
2018-05-17T22:47:21.820Z,99.90
2018-05-17T22:53:26.452Z,99.90
2018-05-17T22:59:31.833Z,99.90
2018-05-17T23:05:36.355Z,99.90
2018-05-17T23:11:40.754Z,99.90
2018-05-17T23:17:46.100Z,99.90
2018-05-17T23:23:51.888Z,99.90
2018-05-17T23:29:56.598Z,99.90
2018-05-17T23:36:01.160Z,99.90
2018-05-17T23:42:05.855Z,99.90
2018-05-17T23:48:10.290Z,99.90
2018-05-17T23:54:14.717Z,99.90
